createdAt,value
2023-03-04T00:01:39.680Z,16.23
2023-03-04T00:04:06.962Z,16.67
2023-03-04T00:06:34.951Z,16.43
2023-03-04T00:09:03.997Z,7.40
2023-03-04T00:11:32.026Z,15.10
2023-03-04T00:13:59.489Z,14.80
2023-03-04T00:16:27.842Z,13.97
2023-03-04T00:18:55.410Z,14.77
2023-03-04T00:21:23.280Z,12.60
2023-03-04T00:23:51.388Z,13.90
2023-03-04T00:26:19.975Z,14.30
2023-03-04T00:28:47.272Z,12.87
2023-03-04T00:31:14.694Z,14.13
2023-03-04T00:33:43.537Z,17.83
2023-03-04T00:36:11.295Z,13.63
2023-03-04T00:38:38.564Z,12.70
2023-03-04T00:41:06.609Z,12.87
2023-03-04T00:43:33.886Z,14.40
2023-03-04T00:46:01.422Z,13.30
2023-03-04T00:48:28.688Z,16.47
2023-03-04T00:50:55.966Z,13.57
2023-03-04T00:53:23.362Z,13.87
2023-03-04T00:55:50.765Z,12.17
2023-03-04T00:58:18.750Z,13.90
2023-03-04T01:00:46.023Z,10.80
2023-03-04T01:03:13.376Z,9.07
2023-03-04T01:05:40.793Z,12.40
2023-03-04T01:08:08.102Z,12.77
2023-03-04T01:10:35.454Z,11.47
2023-03-04T01:13:02.895Z,10.93
2023-03-04T01:15:30.972Z,10.53
2023-03-04T01:17:58.398Z,13.37
2023-03-04T01:20:25.730Z,12.97
2023-03-04T01:22:53.003Z,10.83
2023-03-04T01:25:20.444Z,11.10
2023-03-04T01:27:47.709Z,12.10
2023-03-04T01:30:15.076Z,9.73
2023-03-04T01:32:43.038Z,9.27
2023-03-04T01:35:10.694Z,12.43
2023-03-04T01:37:37.961Z,12.77
2023-03-04T01:40:06.288Z,12.63
2023-03-04T01:42:35.692Z,12.40
2023-03-04T01:45:04.659Z,12.47
2023-03-04T01:47:34.304Z,12.47
2023-03-04T01:50:04.108Z,12.20
2023-03-04T01:52:31.422Z,12.67
2023-03-04T01:54:58.825Z,11.50
2023-03-04T01:57:27.116Z,11.87
2023-03-04T02:00:18.371Z,12.73
2023-03-04T02:02:45.865Z,13.47
2023-03-04T02:05:14.727Z,12.50
2023-03-04T02:07:42.782Z,12.30
2023-03-04T02:10:11.538Z,11.63
2023-03-04T02:12:39.437Z,12.63
2023-03-04T02:15:08.316Z,14.67
2023-03-04T02:17:35.732Z,12.50
2023-03-04T02:20:12.697Z,13.77
2023-03-04T02:22:46.814Z,13.63
2023-03-04T02:25:18.344Z,13.57
2023-03-04T02:27:46.336Z,12.30
2023-03-04T02:30:14.336Z,13.87
2023-03-04T02:32:41.771Z,11.70
2023-03-04T02:35:16.607Z,12.47
2023-03-04T02:37:44.042Z,12.23
2023-03-04T02:40:18.288Z,13.70
2023-03-04T02:42:46.398Z,12.70
2023-03-04T02:45:36.657Z,11.97
2023-03-04T02:48:04.905Z,12.27
2023-03-04T02:50:36.215Z,12.93
2023-03-04T02:53:03.783Z,13.13
2023-03-04T02:55:31.541Z,13.53
2023-03-04T02:57:59.654Z,13.57
2023-03-04T03:00:27.458Z,12.87
2023-03-04T03:02:56.310Z,13.63
2023-03-04T03:05:25.324Z,12.50
2023-03-04T03:07:52.575Z,12.57
2023-03-04T03:10:20.254Z,13.80
2023-03-04T03:12:47.584Z,12.60
2023-03-04T03:15:15.882Z,12.40
2023-03-04T03:17:43.266Z,12.67
2023-03-04T03:20:12.729Z,15.67
2023-03-04T03:22:40.314Z,8.60
2023-03-04T03:25:09.149Z,14.40
2023-03-04T03:27:36.629Z,11.97
2023-03-04T03:30:05.047Z,13.40
2023-03-04T03:32:33.180Z,12.50
2023-03-04T03:35:01.068Z,12.07
2023-03-04T03:37:28.385Z,12.07
2023-03-04T03:39:55.657Z,9.20
2023-03-04T03:42:22.946Z,11.53
2023-03-04T03:44:50.262Z,12.63
2023-03-04T03:47:17.557Z,13.57
2023-03-04T03:49:45.528Z,12.77
2023-03-04T03:52:13.181Z,13.80
2023-03-04T03:54:40.568Z,13.10
2023-03-04T03:57:07.861Z,12.47
2023-03-04T03:59:35.133Z,14.03
2023-03-04T04:02:02.512Z,13.20
2023-03-04T04:04:29.805Z,14.73
2023-03-04T04:06:57.747Z,9.67
2023-03-04T04:09:25.095Z,11.87
2023-03-04T04:11:52.349Z,12.77
2023-03-04T04:14:19.648Z,12.30
2023-03-04T04:16:46.989Z,11.23
2023-03-04T04:19:17.821Z,11.67
2023-03-04T04:21:45.236Z,11.93
2023-03-04T04:24:13.372Z,9.77
2023-03-04T04:26:40.981Z,10.50
2023-03-04T04:29:08.993Z,12.37
2023-03-04T04:31:36.385Z,12.60
2023-03-04T04:34:03.700Z,11.10
2023-03-04T04:36:31.106Z,12.00
2023-03-04T04:38:58.691Z,14.00
2023-03-04T04:41:29.564Z,11.77
2023-03-04T04:43:56.941Z,11.73
2023-03-04T04:46:24.241Z,12.97
2023-03-04T04:48:51.610Z,13.67
2023-03-04T04:51:18.896Z,11.63
2023-03-04T04:53:46.239Z,12.63
2023-03-04T04:56:15.921Z,11.40
2023-03-04T04:58:44.138Z,9.53
2023-03-04T05:01:11.974Z,11.67
2023-03-04T05:03:39.899Z,12.33
2023-03-04T05:06:09.699Z,11.47
2023-03-04T05:08:37.058Z,12.83
2023-03-04T05:11:05.462Z,10.20
2023-03-04T05:13:33.257Z,10.70
2023-03-04T05:16:02.004Z,13.73
2023-03-04T05:18:29.441Z,13.77
2023-03-04T05:20:58.333Z,15.13
2023-03-04T05:23:26.655Z,13.37
2023-03-04T05:25:54.025Z,15.40
2023-03-04T05:28:21.308Z,15.40
2023-03-04T05:30:48.996Z,21.30
2023-03-04T05:33:17.993Z,14.97
2023-03-04T05:35:46.063Z,12.50
2023-03-04T05:38:15.255Z,11.87
2023-03-04T05:40:43.023Z,11.47
2023-03-04T05:43:10.596Z,12.80
2023-03-04T05:45:38.451Z,12.77
2023-03-04T05:48:06.340Z,11.80
2023-03-04T05:50:34.811Z,11.87
2023-03-04T05:53:02.098Z,11.97
2023-03-04T05:55:29.519Z,11.57
2023-03-04T05:57:57.293Z,11.57
2023-03-04T06:00:25.256Z,14.20
2023-03-04T06:02:52.939Z,11.93
2023-03-04T06:05:21.035Z,13.03
2023-03-04T06:07:49.058Z,11.97
2023-03-04T06:10:18.286Z,11.70
2023-03-04T06:12:45.681Z,12.07
2023-03-04T06:15:13.775Z,10.47
2023-03-04T06:17:42.352Z,11.50
2023-03-04T06:20:11.062Z,10.27
2023-03-04T06:22:38.371Z,11.77
2023-03-04T06:25:07.346Z,17.77
2023-03-04T06:27:34.905Z,21.00
2023-03-04T06:30:02.290Z,17.60
2023-03-04T06:32:29.666Z,16.00
2023-03-04T06:34:56.966Z,15.00
2023-03-04T06:37:24.538Z,11.43
2023-03-04T06:39:51.916Z,11.20
2023-03-04T06:42:19.897Z,9.90
2023-03-04T06:44:48.652Z,12.77
2023-03-04T06:47:16.155Z,12.00
2023-03-04T06:49:43.444Z,9.30
2023-03-04T06:52:12.210Z,11.90
2023-03-04T06:54:39.598Z,12.47
2023-03-04T06:57:07.235Z,13.57
2023-03-04T06:59:35.465Z,11.57
2023-03-04T07:02:02.841Z,10.70
2023-03-04T07:04:30.494Z,13.50
2023-03-04T07:06:57.776Z,11.13
2023-03-04T07:09:25.029Z,11.83
2023-03-04T07:11:52.453Z,10.93
2023-03-04T07:14:19.796Z,10.30
2023-03-04T07:16:47.811Z,10.87
2023-03-04T07:19:15.128Z,11.97
2023-03-04T07:21:42.420Z,12.40
2023-03-04T07:24:09.662Z,12.73
2023-03-04T07:26:37.610Z,9.73
2023-03-04T07:29:05.267Z,10.80
2023-03-04T07:31:33.998Z,9.93
2023-03-04T07:34:03.994Z,11.40
2023-03-04T07:36:31.544Z,10.90
2023-03-04T07:38:58.819Z,11.33
2023-03-04T07:41:28.017Z,11.37
2023-03-04T07:43:57.332Z,11.30
2023-03-04T07:46:24.963Z,9.77
2023-03-04T07:48:52.587Z,10.57
2023-03-04T07:51:22.354Z,12.30
2023-03-04T07:53:51.490Z,11.37
2023-03-04T07:56:20.578Z,10.50
2023-03-04T07:58:48.073Z,10.37
2023-03-04T08:01:17.241Z,10.73
2023-03-04T08:03:45.015Z,10.10
2023-03-04T08:06:15.215Z,9.00
2023-03-04T08:08:43.243Z,8.23
2023-03-04T08:11:12.940Z,9.97
2023-03-04T08:13:40.513Z,9.90
2023-03-04T08:16:08.659Z,9.80
2023-03-04T08:18:35.995Z,8.23
2023-03-04T08:21:07.603Z,10.57
2023-03-04T08:23:35.021Z,6.70
2023-03-04T08:26:07.414Z,10.80
2023-03-04T08:28:35.116Z,10.20
2023-03-04T08:31:02.482Z,11.77
2023-03-04T08:33:29.766Z,10.07
2023-03-04T08:35:57.201Z,5.97
2023-03-04T08:38:24.554Z,10.43
2023-03-04T08:40:55.524Z,7.57
2023-03-04T08:43:24.872Z,8.93
2023-03-04T08:45:53.583Z,8.07
2023-03-04T08:48:21.242Z,7.83
2023-03-04T08:50:49.263Z,9.57
2023-03-04T08:53:17.799Z,8.87
2023-03-04T08:55:45.700Z,10.20
2023-03-04T08:58:13.596Z,8.63
2023-03-04T09:00:47.480Z,8.43
2023-03-04T09:03:15.685Z,8.10
2023-03-04T09:05:44.240Z,9.63
2023-03-04T09:08:11.751Z,10.03
2023-03-04T09:10:39.365Z,6.80
2023-03-04T09:13:07.048Z,8.23
2023-03-04T09:15:35.445Z,10.00
2023-03-04T09:18:03.962Z,8.60
2023-03-04T09:20:31.492Z,9.73
2023-03-04T09:22:58.897Z,7.70
2023-03-04T09:25:26.232Z,6.80
2023-03-04T09:27:53.678Z,6.90
2023-03-04T09:30:21.423Z,8.30
2023-03-04T09:32:49.368Z,5.60
2023-03-04T09:35:17.547Z,7.30
2023-03-04T09:37:45.981Z,7.40
2023-03-04T09:40:18.446Z,7.77
2023-03-04T09:42:49.848Z,9.10
2023-03-04T09:45:20.322Z,7.67
2023-03-04T09:47:50.018Z,7.87
2023-03-04T09:50:19.649Z,6.60
2023-03-04T09:53:01.273Z,7.30
2023-03-04T09:55:34.219Z,6.63
2023-03-04T09:58:06.609Z,7.80
2023-03-04T10:00:39.690Z,6.03
2023-03-04T10:03:16.104Z,7.27
2023-03-04T10:05:51.652Z,7.33
2023-03-04T10:08:40.687Z,6.50
2023-03-04T10:11:14.500Z,6.83
2023-03-04T10:13:53.516Z,6.20
2023-03-04T10:16:25.513Z,8.77
2023-03-04T10:18:56.872Z,8.13
2023-03-04T10:21:30.717Z,7.60
2023-03-04T10:23:59.949Z,9.10
2023-03-04T10:26:32.390Z,13.30
2023-03-04T10:29:02.391Z,11.77
2023-03-04T10:31:34.431Z,7.10
2023-03-04T10:34:03.164Z,8.13
2023-03-04T10:36:47.363Z,6.60
2023-03-04T10:39:21.000Z,8.40
2023-03-04T10:41:57.478Z,7.60
2023-03-04T10:44:25.261Z,7.30
2023-03-04T10:46:55.521Z,5.27
2023-03-04T10:49:24.645Z,7.07
2023-03-04T10:51:57.224Z,7.67
2023-03-04T10:54:28.446Z,5.80
2023-03-04T10:57:04.367Z,5.13
2023-03-04T10:59:53.729Z,6.37
2023-03-04T11:02:23.587Z,4.00
2023-03-04T11:04:54.013Z,6.57
2023-03-04T11:07:23.827Z,5.43
2023-03-04T11:09:51.412Z,5.93
2023-03-04T11:12:22.021Z,5.30
2023-03-04T11:14:51.501Z,3.90
2023-03-04T11:17:21.608Z,6.70
2023-03-04T11:19:52.143Z,4.57
2023-03-04T11:22:23.263Z,5.00
2023-03-04T11:24:57.328Z,4.03
2023-03-04T11:27:39.676Z,4.93
2023-03-04T11:30:26.950Z,4.20
2023-03-04T11:32:58.243Z,3.50
2023-03-04T11:35:30.053Z,3.90
2023-03-04T11:38:05.830Z,5.30
2023-03-04T11:40:38.719Z,3.90
2023-03-04T11:43:13.006Z,4.20
2023-03-04T11:46:04.938Z,4.90
2023-03-04T11:48:43.552Z,3.73
2023-03-04T11:51:19.794Z,4.63
2023-03-04T11:53:59.366Z,4.67
2023-03-04T11:56:34.822Z,4.80
2023-03-04T11:59:24.543Z,3.30
2023-03-04T12:02:04.468Z,4.30
2023-03-04T12:04:48.574Z,5.00
2023-03-04T12:07:29.874Z,2.50
2023-03-04T12:10:12.740Z,5.30
2023-03-04T12:13:00.102Z,5.33
2023-03-04T12:15:32.709Z,10.53
2023-03-04T12:18:29.220Z,4.93
2023-03-04T12:21:15.991Z,4.13
2023-03-04T12:23:56.277Z,3.23
2023-03-04T12:26:38.135Z,3.30
2023-03-04T12:29:13.235Z,3.90
2023-03-04T12:31:43.032Z,3.60
2023-03-04T12:34:35.486Z,3.43
2023-03-04T12:37:39.430Z,4.17
2023-03-04T12:40:30.313Z,4.00
2023-03-04T12:43:23.251Z,3.87
2023-03-04T12:46:01.311Z,3.70
2023-03-04T12:48:32.409Z,3.73
2023-03-04T12:51:13.996Z,4.10
2023-03-04T12:53:51.674Z,3.80
2023-03-04T12:56:26.239Z,3.07
2023-03-04T12:58:55.376Z,4.40
2023-03-04T13:01:27.169Z,3.70
2023-03-04T13:04:03.372Z,4.40
2023-03-04T13:06:42.076Z,3.70
2023-03-04T13:09:16.461Z,5.07
2023-03-04T13:11:53.899Z,3.93
2023-03-04T13:14:33.260Z,5.93
2023-03-04T13:17:02.294Z,3.07
2023-03-04T13:19:55.857Z,4.40
2023-03-04T13:22:44.393Z,2.80
2023-03-04T13:26:26.479Z,3.33
2023-03-04T13:29:29.698Z,2.10
2023-03-04T13:35:50.968Z,2.23
2023-03-04T13:38:23.396Z,2.00
2023-03-04T13:41:11.957Z,1.70
2023-03-04T13:43:41.025Z,2.00
2023-03-04T13:46:30.092Z,1.43
2023-03-04T13:49:03.308Z,1.70
2023-03-04T13:51:33.735Z,2.10
2023-03-04T13:54:13.418Z,1.47
2023-03-04T13:56:41.053Z,2.33
2023-03-04T13:59:20.304Z,2.17
2023-03-04T14:01:59.140Z,2.57
2023-03-04T14:04:30.582Z,2.03
2023-03-04T14:07:00.448Z,1.83
2023-03-04T14:09:29.620Z,1.43
2023-03-04T14:11:58.926Z,1.60
2023-03-04T14:14:29.700Z,1.53
2023-03-04T14:17:00.348Z,1.70
2023-03-04T14:19:30.671Z,1.47
2023-03-04T14:22:00.492Z,1.70
2023-03-04T14:24:30.080Z,1.73
2023-03-04T14:27:12.848Z,1.60
2023-03-04T14:29:40.425Z,1.83
2023-03-04T14:32:08.554Z,1.90
2023-03-04T14:34:38.685Z,1.80
2023-03-04T14:37:21.804Z,2.90
2023-03-04T14:39:53.131Z,2.73
2023-03-04T14:42:23.389Z,1.80
2023-03-04T14:44:52.036Z,2.00
2023-03-04T14:47:23.804Z,1.33
2023-03-04T14:49:51.587Z,1.40
2023-03-04T14:52:34.055Z,1.93
2023-03-04T14:55:17.482Z,1.70
2023-03-04T14:57:45.958Z,1.47
2023-03-04T15:00:25.162Z,1.13
2023-03-04T15:02:53.909Z,1.63
2023-03-04T15:05:27.269Z,1.50
2023-03-04T15:07:56.812Z,2.40
2023-03-04T15:10:26.201Z,2.87
2023-03-04T15:12:55.128Z,1.60
2023-03-04T15:15:39.142Z,1.60
2023-03-04T15:18:20.254Z,1.77
2023-03-04T15:20:54.901Z,1.20
2023-03-04T15:23:23.087Z,2.63
2023-03-04T15:25:53.169Z,2.50
2023-03-04T15:28:22.036Z,2.37
2023-03-04T15:30:49.498Z,1.77
2023-03-04T15:33:18.304Z,2.67
2023-03-04T15:35:53.235Z,2.53
2023-03-04T15:38:20.745Z,1.20
2023-03-04T15:40:49.074Z,1.63
2023-03-04T15:43:18.318Z,1.20
2023-03-04T15:45:46.061Z,2.67
2023-03-04T15:48:15.226Z,2.40
2023-03-04T15:50:45.228Z,2.50
2023-03-04T15:53:16.989Z,1.60
2023-03-04T15:55:46.355Z,1.53
2023-03-04T15:58:15.380Z,2.43
2023-03-04T16:00:42.749Z,3.00
2023-03-04T16:03:15.730Z,2.73
2023-03-04T16:05:44.432Z,3.27
2023-03-04T16:08:14.889Z,2.30
2023-03-04T16:10:43.758Z,2.17
2023-03-04T16:13:15.103Z,1.97
2023-03-04T16:15:43.195Z,1.27
2023-03-04T16:18:11.677Z,2.63
2023-03-04T16:20:40.100Z,2.40
2023-03-04T16:23:13.062Z,1.90
2023-03-04T16:25:42.832Z,2.20
2023-03-04T16:28:11.458Z,2.17
2023-03-04T16:30:39.934Z,2.70
2023-03-04T16:33:07.484Z,2.20
2023-03-04T16:35:39.651Z,2.17
2023-03-04T16:38:25.167Z,2.90
2023-03-04T16:40:52.943Z,1.87
2023-03-04T16:43:20.311Z,2.17
2023-03-04T16:45:48.809Z,1.93
2023-03-04T16:48:16.200Z,2.17
2023-03-04T16:50:44.340Z,1.73
2023-03-04T16:53:25.218Z,1.00
2023-03-04T16:55:52.637Z,1.60
2023-03-04T16:58:19.980Z,1.87
2023-03-04T17:00:47.951Z,1.80
2023-03-04T17:03:15.241Z,1.30
2023-03-04T17:05:43.596Z,2.20
2023-03-04T17:08:10.963Z,2.00
2023-03-04T17:10:38.282Z,2.47
2023-03-04T17:13:05.713Z,1.87
2023-03-04T17:15:33.005Z,2.80
2023-03-04T17:18:01.084Z,2.10
2023-03-04T17:20:28.779Z,2.33
2023-03-04T17:22:56.255Z,3.30
2023-03-04T17:25:23.564Z,3.10
2023-03-04T17:27:51.240Z,2.20
2023-03-04T17:30:18.690Z,3.70
2023-03-04T17:32:45.986Z,2.90
2023-03-04T17:35:13.934Z,3.07
2023-03-04T17:37:41.327Z,2.30
2023-03-04T17:40:13.374Z,2.00
2023-03-04T17:42:40.874Z,2.07
2023-03-04T17:45:09.951Z,2.73
2023-03-04T17:47:37.444Z,2.93
2023-03-04T17:50:05.993Z,3.20
2023-03-04T17:52:34.147Z,4.00
2023-03-04T17:55:01.547Z,5.03
2023-03-04T17:57:28.891Z,4.40
2023-03-04T17:59:56.925Z,5.73
2023-03-04T18:02:24.283Z,3.33
2023-03-04T18:04:51.691Z,1.73
2023-03-04T18:07:19.045Z,2.10
2023-03-04T18:09:47.023Z,2.50
2023-03-04T18:12:14.470Z,3.90
2023-03-04T18:14:41.750Z,2.37
2023-03-04T18:17:09.116Z,4.13
2023-03-04T18:19:36.594Z,2.83
2023-03-04T18:22:04.054Z,4.00
2023-03-04T18:24:31.607Z,4.00
2023-03-04T18:26:59.841Z,3.87
2023-03-04T18:29:28.902Z,2.50
2023-03-04T18:31:56.400Z,6.30
2023-03-04T18:34:23.939Z,6.37
2023-03-04T18:36:51.391Z,4.37
2023-03-04T18:39:18.857Z,3.60
2023-03-04T18:41:46.140Z,3.33
2023-03-04T18:44:14.177Z,2.80
2023-03-04T18:46:45.106Z,2.90
2023-03-04T18:49:14.243Z,1.90
2023-03-04T18:51:41.586Z,2.10
2023-03-04T18:54:09.128Z,2.57
2023-03-04T18:56:40.730Z,2.53
2023-03-04T18:59:12.203Z,3.00
2023-03-04T19:01:40.395Z,2.97
2023-03-04T19:04:08.634Z,2.67
2023-03-04T19:06:36.077Z,2.50
2023-03-04T19:09:04.406Z,3.50
2023-03-04T19:11:31.762Z,2.53
2023-03-04T19:13:59.102Z,3.30
2023-03-04T19:16:26.410Z,3.17
2023-03-04T19:18:54.402Z,2.60
2023-03-04T19:21:21.712Z,2.80
2023-03-04T19:23:49.028Z,3.40
2023-03-04T19:26:16.328Z,3.37
2023-03-04T19:28:43.658Z,2.37
2023-03-04T19:31:11.638Z,3.43
2023-03-04T19:33:39.872Z,2.90
2023-03-04T19:36:09.512Z,3.23
2023-03-04T19:38:37.247Z,2.63
2023-03-04T19:41:11.941Z,2.77
2023-03-04T19:43:39.697Z,2.60
2023-03-04T19:46:07.842Z,4.70
2023-03-04T19:48:36.037Z,2.80
2023-03-04T19:51:04.324Z,3.97
2023-03-04T19:53:34.599Z,3.03
2023-03-04T19:56:02.568Z,3.17
2023-03-04T19:58:29.978Z,3.40
2023-03-04T20:00:57.292Z,3.10
2023-03-04T20:03:24.809Z,1.97
2023-03-04T20:06:01.195Z,3.03
2023-03-04T20:08:28.513Z,2.87
2023-03-04T20:10:56.523Z,3.70
2023-03-04T20:13:23.826Z,2.10
2023-03-04T20:15:51.196Z,3.10
2023-03-04T20:18:18.597Z,3.00
2023-03-04T20:20:48.114Z,3.37
2023-03-04T20:23:19.489Z,2.50
2023-03-04T20:25:46.861Z,3.30
2023-03-04T20:28:14.877Z,3.33
2023-03-04T20:30:42.136Z,3.03
2023-03-04T20:33:09.464Z,3.70
2023-03-04T20:35:39.810Z,3.00
2023-03-04T20:38:07.310Z,2.73
2023-03-04T20:40:35.549Z,3.30
2023-03-04T20:43:04.895Z,3.20
2023-03-04T20:45:33.279Z,3.87
2023-03-04T20:48:00.514Z,3.77
2023-03-04T20:50:27.885Z,4.00
2023-03-04T20:52:55.244Z,5.13
2023-03-04T20:55:23.308Z,3.63
2023-03-04T20:57:50.694Z,5.20
2023-03-04T21:00:18.510Z,5.83
2023-03-04T21:02:46.587Z,8.80
2023-03-04T21:05:14.017Z,7.77
2023-03-04T21:07:41.284Z,9.70
2023-03-04T21:10:09.442Z,4.57
2023-03-04T21:12:36.744Z,7.20
2023-03-04T21:15:04.938Z,3.60
2023-03-04T21:17:32.235Z,2.93
2023-03-04T21:20:00.309Z,4.80
2023-03-04T21:22:27.658Z,3.57
2023-03-04T21:24:54.968Z,3.83
2023-03-04T21:27:22.413Z,4.93
2023-03-04T21:29:49.795Z,3.67
2023-03-04T21:32:24.787Z,2.73
2023-03-04T21:34:54.254Z,3.70
2023-03-04T21:37:23.434Z,3.33
2023-03-04T21:39:51.181Z,3.40
2023-03-04T21:42:19.388Z,3.17
2023-03-04T21:44:51.230Z,3.57
2023-03-04T21:47:19.430Z,2.93
2023-03-04T21:49:46.845Z,2.80
2023-03-04T21:52:14.601Z,2.57
2023-03-04T21:54:42.718Z,3.07
2023-03-04T21:57:10.093Z,2.30
2023-03-04T21:59:38.703Z,2.60
2023-03-04T22:02:06.667Z,2.20
2023-03-04T22:04:34.020Z,2.37
2023-03-04T22:07:02.216Z,2.70
2023-03-04T22:09:29.524Z,3.20
2023-03-04T22:11:57.597Z,3.63
2023-03-04T22:14:26.961Z,2.50
2023-03-04T22:16:56.013Z,2.77
2023-03-04T22:19:24.768Z,3.67
2023-03-04T22:21:52.681Z,3.50
2023-03-04T22:24:20.408Z,2.50
2023-03-04T22:26:48.100Z,3.30
2023-03-04T22:29:16.260Z,2.20
2023-03-04T22:31:44.646Z,1.47
2023-03-04T22:34:13.906Z,2.43
2023-03-04T22:36:43.262Z,1.80
2023-03-04T22:39:12.747Z,3.87
2023-03-04T22:41:40.308Z,2.63
2023-03-04T22:44:07.884Z,2.63
2023-03-04T22:46:38.416Z,3.37
2023-03-04T22:49:08.803Z,3.23
2023-03-04T22:51:36.324Z,2.20
2023-03-04T22:54:03.800Z,2.40
2023-03-04T22:56:31.251Z,2.50
2023-03-04T22:58:58.564Z,2.37
2023-03-04T23:01:25.910Z,2.80
2023-03-04T23:03:53.909Z,2.03
2023-03-04T23:06:24.458Z,2.20
2023-03-04T23:08:52.575Z,1.70
2023-03-04T23:11:21.701Z,3.57
2023-03-04T23:13:49.979Z,2.63
2023-03-04T23:16:18.328Z,2.10
2023-03-04T23:18:46.679Z,3.40
2023-03-04T23:21:17.085Z,3.20
2023-03-04T23:23:44.738Z,3.20
2023-03-04T23:26:15.794Z,2.30
2023-03-04T23:28:43.194Z,2.77
2023-03-04T23:31:10.650Z,2.60
2023-03-04T23:33:38.823Z,2.47
2023-03-04T23:36:08.959Z,2.50
2023-03-04T23:38:36.931Z,2.60
2023-03-04T23:41:04.416Z,3.03
2023-03-04T23:43:32.289Z,3.60
2023-03-04T23:45:59.764Z,2.17
2023-03-04T23:48:27.105Z,2.27
2023-03-04T23:50:54.709Z,3.17
2023-03-04T23:53:22.053Z,2.57
2023-03-04T23:55:50.008Z,3.00
2023-03-04T23:58:17.294Z,2.57
